sensor_id;sensor_type;location;lat;lon;timestamp;temperature;humidity
14101;DHT22;7127;49.372;8.166;2022-12-07T00:01:40;9.30;56.00
14101;DHT22;7127;49.372;8.166;2022-12-07T00:04:10;9.40;56.10
14101;DHT22;7127;49.372;8.166;2022-12-07T00:06:38;9.30;56.00
14101;DHT22;7127;49.372;8.166;2022-12-07T00:09:09;9.30;55.90
14101;DHT22;7127;49.372;8.166;2022-12-07T00:11:36;9.30;55.80
14101;DHT22;7127;49.372;8.166;2022-12-07T00:14:07;9.30;56.20
14101;DHT22;7127;49.372;8.166;2022-12-07T00:16:34;9.30;55.70
14101;DHT22;7127;49.372;8.166;2022-12-07T00:19:02;9.30;55.70
14101;DHT22;7127;49.372;8.166;2022-12-07T00:21:31;9.30;55.80
14101;DHT22;7127;49.372;8.166;2022-12-07T00:23:59;9.30;56.00
14101;DHT22;7127;49.372;8.166;2022-12-07T00:26:28;9.30;55.90
14101;DHT22;7127;49.372;8.166;2022-12-07T00:28:56;9.30;55.90
14101;DHT22;7127;49.372;8.166;2022-12-07T00:31:27;9.40;56.00
14101;DHT22;7127;49.372;8.166;2022-12-07T00:33:55;9.20;55.80
14101;DHT22;7127;49.372;8.166;2022-12-07T00:36:23;9.30;56.00
14101;DHT22;7127;49.372;8.166;2022-12-07T00:38:50;9.30;56.00
14101;DHT22;7127;49.372;8.166;2022-12-07T00:41:19;9.30;56.00
14101;DHT22;7127;49.372;8.166;2022-12-07T00:43:47;9.30;56.00
14101;DHT22;7127;49.372;8.166;2022-12-07T00:46:15;9.30;56.00
14101;DHT22;7127;49.372;8.166;2022-12-07T00:48:44;9.30;56.00
14101;DHT22;7127;49.372;8.166;2022-12-07T00:51:12;9.50;56.20
14101;DHT22;7127;49.372;8.166;2022-12-07T00:53:40;9.30;56.00
14101;DHT22;7127;49.372;8.166;2022-12-07T00:56:07;9.30;56.00
14101;DHT22;7127;49.372;8.166;2022-12-07T00:58:34;9.30;56.00
14101;DHT22;7127;49.372;8.166;2022-12-07T01:01:02;9.30;56.00
14101;DHT22;7127;49.372;8.166;2022-12-07T01:03:29;9.30;56.00
14101;DHT22;7127;49.372;8.166;2022-12-07T01:05:58;9.30;56.00
14101;DHT22;7127;49.372;8.166;2022-12-07T01:08:26;9.30;56.00
14101;DHT22;7127;49.372;8.166;2022-12-07T01:10:58;9.30;55.90
14101;DHT22;7127;49.372;8.166;2022-12-07T01:13:26;9.30;56.60
14101;DHT22;7127;49.372;8.166;2022-12-07T01:15:57;9.30;56.00
14101;DHT22;7127;49.372;8.166;2022-12-07T01:18:25;9.30;56.00
14101;DHT22;7127;49.372;8.166;2022-12-07T01:21:04;9.30;56.00
14101;DHT22;7127;49.372;8.166;2022-12-07T01:23:32;9.30;56.00
14101;DHT22;7127;49.372;8.166;2022-12-07T01:26:01;9.30;56.00
14101;DHT22;7127;49.372;8.166;2022-12-07T01:28:29;9.30;56.00
14101;DHT22;7127;49.372;8.166;2022-12-07T01:30:57;9.30;56.60
14101;DHT22;7127;49.372;8.166;2022-12-07T01:33:26;9.30;56.00
14101;DHT22;7127;49.372;8.166;2022-12-07T01:35:53;9.30;56.00
14101;DHT22;7127;49.372;8.166;2022-12-07T01:38:21;9.30;56.00
14101;DHT22;7127;49.372;8.166;2022-12-07T01:40:54;9.30;56.00
14101;DHT22;7127;49.372;8.166;2022-12-07T01:43:23;9.40;56.10
14101;DHT22;7127;49.372;8.166;2022-12-07T01:45:50;9.30;56.00
14101;DHT22;7127;49.372;8.166;2022-12-07T01:48:20;9.30;56.00
14101;DHT22;7127;49.372;8.166;2022-12-07T01:50:50;9.30;55.90
14101;DHT22;7127;49.372;8.166;2022-12-07T01:53:18;9.30;55.90
14101;DHT22;7127;49.372;8.166;2022-12-07T01:55:50;9.30;55.90
14101;DHT22;7127;49.372;8.166;2022-12-07T01:58:17;9.30;55.80
14101;DHT22;7127;49.372;8.166;2022-12-07T02:00:44;9.30;55.80
14101;DHT22;7127;49.372;8.166;2022-12-07T02:03:14;9.30;55.90
14101;DHT22;7127;49.372;8.166;2022-12-07T02:05:43;9.30;55.70
14101;DHT22;7127;49.372;8.166;2022-12-07T02:08:11;9.30;55.60
14101;DHT22;7127;49.372;8.166;2022-12-07T02:10:38;9.30;55.50
14101;DHT22;7127;49.372;8.166;2022-12-07T02:13:11;9.30;54.90
14101;DHT22;7127;49.372;8.166;2022-12-07T02:15:59;9.30;55.20
14101;DHT22;7127;49.372;8.166;2022-12-07T02:18:37;9.20;55.10
14101;DHT22;7127;49.372;8.166;2022-12-07T02:21:08;9.20;55.10
14101;DHT22;7127;49.372;8.166;2022-12-07T02:23:52;9.20;55.20
14101;DHT22;7127;49.372;8.166;2022-12-07T02:29:38;9.20;55.10
14101;DHT22;7127;49.372;8.166;2022-12-07T02:32:10;9.10;55.00
14101;DHT22;7127;49.372;8.166;2022-12-07T02:34:46;9.10;54.90
14101;DHT22;7127;49.372;8.166;2022-12-07T02:37:22;9.00;54.90
14101;DHT22;7127;49.372;8.166;2022-12-07T02:39:57;9.00;55.10
14101;DHT22;7127;49.372;8.166;2022-12-07T02:42:30;9.00;55.60
14101;DHT22;7127;49.372;8.166;2022-12-07T02:45:01;9.00;55.10
14101;DHT22;7127;49.372;8.166;2022-12-07T02:47:29;9.10;55.20
14101;DHT22;7127;49.372;8.166;2022-12-07T02:49:58;9.00;55.70
14101;DHT22;7127;49.372;8.166;2022-12-07T02:52:25;9.00;55.10
14101;DHT22;7127;49.372;8.166;2022-12-07T02:54:52;9.20;55.30
14101;DHT22;7127;49.372;8.166;2022-12-07T02:57:30;9.00;55.10
14101;DHT22;7127;49.372;8.166;2022-12-07T03:00:06;9.00;55.10
14101;DHT22;7127;49.372;8.166;2022-12-07T03:02:46;9.00;54.50
14101;DHT22;7127;49.372;8.166;2022-12-07T03:05:28;9.00;54.80
14101;DHT22;7127;49.372;8.166;2022-12-07T03:08:02;9.00;54.80
14101;DHT22;7127;49.372;8.166;2022-12-07T03:10:35;9.00;54.70
14101;DHT22;7127;49.372;8.166;2022-12-07T03:13:11;9.00;54.60
14101;DHT22;7127;49.372;8.166;2022-12-07T03:15:45;9.10;54.80
14101;DHT22;7127;49.372;8.166;2022-12-07T03:18:17;9.20;54.60
14101;DHT22;7127;49.372;8.166;2022-12-07T03:20:46;9.00;54.40
14101;DHT22;7127;49.372;8.166;2022-12-07T03:23:16;9.00;54.60
14101;DHT22;7127;49.372;8.166;2022-12-07T03:25:48;9.00;54.70
14101;DHT22;7127;49.372;8.166;2022-12-07T03:28:19;9.00;54.70
14101;DHT22;7127;49.372;8.166;2022-12-07T03:30:51;9.00;54.60
14101;DHT22;7127;49.372;8.166;2022-12-07T03:33:22;9.00;54.80
14101;DHT22;7127;49.372;8.166;2022-12-07T03:35:55;8.90;54.70
14101;DHT22;7127;49.372;8.166;2022-12-07T03:38:29;9.00;54.80
14101;DHT22;7127;49.372;8.166;2022-12-07T03:41:00;9.00;54.90
14101;DHT22;7127;49.372;8.166;2022-12-07T03:43:28;9.00;54.80
14101;DHT22;7127;49.372;8.166;2022-12-07T03:46:03;9.00;54.90
14101;DHT22;7127;49.372;8.166;2022-12-07T03:48:37;9.00;54.90
14101;DHT22;7127;49.372;8.166;2022-12-07T03:51:11;9.10;55.00
14101;DHT22;7127;49.372;8.166;2022-12-07T03:53:43;9.10;54.90
14101;DHT22;7127;49.372;8.166;2022-12-07T03:56:12;9.10;54.90
14101;DHT22;7127;49.372;8.166;2022-12-07T03:58:40;9.10;54.90
14101;DHT22;7127;49.372;8.166;2022-12-07T04:01:10;9.10;54.90
14101;DHT22;7127;49.372;8.166;2022-12-07T04:03:37;9.20;54.90
14101;DHT22;7127;49.372;8.166;2022-12-07T04:06:04;9.10;54.90
14101;DHT22;7127;49.372;8.166;2022-12-07T04:08:31;9.10;54.90
14101;DHT22;7127;49.372;8.166;2022-12-07T04:10:58;9.10;54.70
14101;DHT22;7127;49.372;8.166;2022-12-07T04:13:25;9.10;54.60
14101;DHT22;7127;49.372;8.166;2022-12-07T04:15:52;9.10;54.80
14101;DHT22;7127;49.372;8.166;2022-12-07T04:18:20;9.10;54.70
14101;DHT22;7127;49.372;8.166;2022-12-07T04:20:47;9.30;54.90
14101;DHT22;7127;49.372;8.166;2022-12-07T04:23:14;9.10;54.40
14101;DHT22;7127;49.372;8.166;2022-12-07T04:25:41;9.10;54.40
14101;DHT22;7127;49.372;8.166;2022-12-07T04:28:08;9.00;54.50
14101;DHT22;7127;49.372;8.166;2022-12-07T04:30:34;9.10;54.60
14101;DHT22;7127;49.372;8.166;2022-12-07T04:33:01;9.10;54.60
14101;DHT22;7127;49.372;8.166;2022-12-07T04:35:30;9.10;54.40
14101;DHT22;7127;49.372;8.166;2022-12-07T04:37:56;9.10;54.70
14101;DHT22;7127;49.372;8.166;2022-12-07T04:40:23;9.00;54.60
14101;DHT22;7127;49.372;8.166;2022-12-07T04:42:50;9.00;54.40
14101;DHT22;7127;49.372;8.166;2022-12-07T04:45:17;9.10;54.60
14101;DHT22;7127;49.372;8.166;2022-12-07T04:47:44;9.00;54.50
14101;DHT22;7127;49.372;8.166;2022-12-07T04:50:11;9.00;54.50
14101;DHT22;7127;49.372;8.166;2022-12-07T04:52:39;9.00;54.60
14101;DHT22;7127;49.372;8.166;2022-12-07T04:55:06;9.00;54.70
14101;DHT22;7127;49.372;8.166;2022-12-07T04:57:33;9.00;54.50
14101;DHT22;7127;49.372;8.166;2022-12-07T05:00:00;8.90;54.50
14101;DHT22;7127;49.372;8.166;2022-12-07T05:02:27;8.90;54.60
14101;DHT22;7127;49.372;8.166;2022-12-07T05:04:54;8.90;54.80
14101;DHT22;7127;49.372;8.166;2022-12-07T05:07:21;8.90;54.80
14101;DHT22;7127;49.372;8.166;2022-12-07T05:09:49;8.90;54.80
14101;DHT22;7127;49.372;8.166;2022-12-07T05:12:16;8.90;54.90
14101;DHT22;7127;49.372;8.166;2022-12-07T05:14:43;8.80;54.90
14101;DHT22;7127;49.372;8.166;2022-12-07T05:17:10;8.90;55.00
14101;DHT22;7127;49.372;8.166;2022-12-07T05:19:37;9.00;55.00
14101;DHT22;7127;49.372;8.166;2022-12-07T05:22:04;8.80;55.00
14101;DHT22;7127;49.372;8.166;2022-12-07T05:24:31;8.80;55.10
14101;DHT22;7127;49.372;8.166;2022-12-07T05:26:59;8.80;55.20
14101;DHT22;7127;49.372;8.166;2022-12-07T05:29:26;8.80;55.30
14101;DHT22;7127;49.372;8.166;2022-12-07T05:31:53;8.80;55.30
14101;DHT22;7127;49.372;8.166;2022-12-07T05:34:20;8.80;55.20
14101;DHT22;7127;49.372;8.166;2022-12-07T05:36:46;8.80;55.30
14101;DHT22;7127;49.372;8.166;2022-12-07T05:39:13;8.80;55.20
14101;DHT22;7127;49.372;8.166;2022-12-07T05:41:40;8.80;55.30
14101;DHT22;7127;49.372;8.166;2022-12-07T05:44:26;8.80;55.40
14101;DHT22;7127;49.372;8.166;2022-12-07T05:46:53;8.80;55.50
14101;DHT22;7127;49.372;8.166;2022-12-07T05:49:20;8.80;55.50
14101;DHT22;7127;49.372;8.166;2022-12-07T05:51:47;8.80;55.50
14101;DHT22;7127;49.372;8.166;2022-12-07T05:54:13;8.80;55.50
14101;DHT22;7127;49.372;8.166;2022-12-07T05:56:40;8.80;55.50
14101;DHT22;7127;49.372;8.166;2022-12-07T05:59:08;8.80;55.60
14101;DHT22;7127;49.372;8.166;2022-12-07T06:01:52;8.80;55.60
14101;DHT22;7127;49.372;8.166;2022-12-07T06:04:20;8.80;55.70
14101;DHT22;7127;49.372;8.166;2022-12-07T06:06:47;8.80;55.60
14101;DHT22;7127;49.372;8.166;2022-12-07T06:09:14;8.80;55.70
14101;DHT22;7127;49.372;8.166;2022-12-07T06:11:41;8.80;55.60
14101;DHT22;7127;49.372;8.166;2022-12-07T06:14:25;8.80;55.60
14101;DHT22;7127;49.372;8.166;2022-12-07T06:16:53;8.80;55.60
14101;DHT22;7127;49.372;8.166;2022-12-07T06:19:20;8.80;55.60
14101;DHT22;7127;49.372;8.166;2022-12-07T06:21:47;8.90;55.70
14101;DHT22;7127;49.372;8.166;2022-12-07T06:24:15;8.90;55.70
14101;DHT22;7127;49.372;8.166;2022-12-07T06:26:43;8.90;55.60
14101;DHT22;7127;49.372;8.166;2022-12-07T06:29:10;8.80;55.60
14101;DHT22;7127;49.372;8.166;2022-12-07T06:31:38;8.90;55.70
14101;DHT22;7127;49.372;8.166;2022-12-07T06:34:09;8.80;55.60
14101;DHT22;7127;49.372;8.166;2022-12-07T06:36:36;8.80;55.60
14101;DHT22;7127;49.372;8.166;2022-12-07T06:39:04;8.80;55.60
14101;DHT22;7127;49.372;8.166;2022-12-07T06:41:32;8.80;55.60
14101;DHT22;7127;49.372;8.166;2022-12-07T06:43:58;8.90;55.70
14101;DHT22;7127;49.372;8.166;2022-12-07T06:46:25;8.80;55.70
14101;DHT22;7127;49.372;8.166;2022-12-07T06:48:52;8.90;55.70
14101;DHT22;7127;49.372;8.166;2022-12-07T06:51:21;8.90;55.70
14101;DHT22;7127;49.372;8.166;2022-12-07T06:53:47;8.90;55.70
14101;DHT22;7127;49.372;8.166;2022-12-07T06:56:15;9.60;56.30
14101;DHT22;7127;49.372;8.166;2022-12-07T06:58:41;8.90;56.30
14101;DHT22;7127;49.372;8.166;2022-12-07T07:01:09;8.90;55.70
14101;DHT22;7127;49.372;8.166;2022-12-07T07:03:36;8.90;55.80
14101;DHT22;7127;49.372;8.166;2022-12-07T07:06:04;9.30;56.00
14101;DHT22;7127;49.372;8.166;2022-12-07T07:08:32;8.90;55.70
14101;DHT22;7127;49.372;8.166;2022-12-07T07:10:59;8.90;55.70
14101;DHT22;7127;49.372;8.166;2022-12-07T07:13:27;9.00;55.80
14101;DHT22;7127;49.372;8.166;2022-12-07T07:15:54;8.90;55.70
14101;DHT22;7127;49.372;8.166;2022-12-07T07:18:21;9.10;55.80
14101;DHT22;7127;49.372;8.166;2022-12-07T07:20:51;8.80;55.60
14101;DHT22;7127;49.372;8.166;2022-12-07T07:23:18;8.90;55.70
14101;DHT22;7127;49.372;8.166;2022-12-07T07:25:47;8.80;55.70
14101;DHT22;7127;49.372;8.166;2022-12-07T07:28:14;8.80;55.60
14101;DHT22;7127;49.372;8.166;2022-12-07T07:30:41;8.80;55.70
14101;DHT22;7127;49.372;8.166;2022-12-07T07:33:09;8.80;55.80
14101;DHT22;7127;49.372;8.166;2022-12-07T07:35:37;8.70;55.70
14101;DHT22;7127;49.372;8.166;2022-12-07T07:38:04;8.70;56.40
14101;DHT22;7127;49.372;8.166;2022-12-07T07:40:31;8.70;55.90
14101;DHT22;7127;49.372;8.166;2022-12-07T07:43:00;8.70;55.90
14101;DHT22;7127;49.372;8.166;2022-12-07T07:45:27;8.60;55.90
14101;DHT22;7127;49.372;8.166;2022-12-07T07:47:54;8.60;56.00
14101;DHT22;7127;49.372;8.166;2022-12-07T07:50:21;8.60;56.10
14101;DHT22;7127;49.372;8.166;2022-12-07T07:52:48;8.60;56.10
14101;DHT22;7127;49.372;8.166;2022-12-07T07:55:15;8.60;56.10
14101;DHT22;7127;49.372;8.166;2022-12-07T07:57:42;8.60;56.20
14101;DHT22;7127;49.372;8.166;2022-12-07T08:00:12;8.60;56.20
14101;DHT22;7127;49.372;8.166;2022-12-07T08:02:40;8.60;56.20
14101;DHT22;7127;49.372;8.166;2022-12-07T08:05:08;8.60;56.30
14101;DHT22;7127;49.372;8.166;2022-12-07T08:07:35;8.60;56.30
14101;DHT22;7127;49.372;8.166;2022-12-07T08:10:03;8.60;56.30
14101;DHT22;7127;49.372;8.166;2022-12-07T08:12:30;8.60;56.40
14101;DHT22;7127;49.372;8.166;2022-12-07T08:14:57;8.60;56.40
14101;DHT22;7127;49.372;8.166;2022-12-07T08:17:25;8.60;56.40
14101;DHT22;7127;49.372;8.166;2022-12-07T08:19:52;8.70;56.50
14101;DHT22;7127;49.372;8.166;2022-12-07T08:22:19;8.70;56.60
14101;DHT22;7127;49.372;8.166;2022-12-07T08:24:46;8.80;56.60
14101;DHT22;7127;49.372;8.166;2022-12-07T08:27:13;8.70;56.40
14101;DHT22;7127;49.372;8.166;2022-12-07T08:29:40;8.70;56.40
14101;DHT22;7127;49.372;8.166;2022-12-07T08:32:07;8.90;56.50
14101;DHT22;7127;49.372;8.166;2022-12-07T08:34:35;8.90;57.10
14101;DHT22;7127;49.372;8.166;2022-12-07T08:37:02;8.80;56.60
14101;DHT22;7127;49.372;8.166;2022-12-07T08:39:29;8.80;56.50
14101;DHT22;7127;49.372;8.166;2022-12-07T08:41:56;9.10;56.80
14101;DHT22;7127;49.372;8.166;2022-12-07T08:44:23;8.90;56.70
14101;DHT22;7127;49.372;8.166;2022-12-07T08:46:55;9.00;56.80
14101;DHT22;7127;49.372;8.166;2022-12-07T08:49:26;9.10;56.80
14101;DHT22;7127;49.372;8.166;2022-12-07T08:51:56;9.10;56.80
14101;DHT22;7127;49.372;8.166;2022-12-07T08:54:23;9.20;56.80
14101;DHT22;7127;49.372;8.166;2022-12-07T08:56:50;9.20;56.80
14101;DHT22;7127;49.372;8.166;2022-12-07T08:59:19;9.30;56.80
14101;DHT22;7127;49.372;8.166;2022-12-07T09:01:47;9.30;56.70
14101;DHT22;7127;49.372;8.166;2022-12-07T09:04:14;9.40;56.70
14101;DHT22;7127;49.372;8.166;2022-12-07T09:06:42;9.40;56.60
14101;DHT22;7127;49.372;8.166;2022-12-07T09:09:11;9.50;56.60
14101;DHT22;7127;49.372;8.166;2022-12-07T09:11:40;9.50;56.50
14101;DHT22;7127;49.372;8.166;2022-12-07T09:14:07;9.50;56.40
14101;DHT22;7127;49.372;8.166;2022-12-07T09:16:33;9.50;56.30
14101;DHT22;7127;49.372;8.166;2022-12-07T09:19:00;9.50;56.30
14101;DHT22;7127;49.372;8.166;2022-12-07T09:21:27;9.60;56.30
14101;DHT22;7127;49.372;8.166;2022-12-07T09:23:54;9.60;56.30
14101;DHT22;7127;49.372;8.166;2022-12-07T09:26:22;9.60;56.30
14101;DHT22;7127;49.372;8.166;2022-12-07T09:28:49;9.60;56.40
14101;DHT22;7127;49.372;8.166;2022-12-07T09:31:17;9.60;56.30
14101;DHT22;7127;49.372;8.166;2022-12-07T09:33:44;9.60;56.30
14101;DHT22;7127;49.372;8.166;2022-12-07T09:36:11;9.70;56.50
14101;DHT22;7127;49.372;8.166;2022-12-07T09:38:37;9.70;56.50
14101;DHT22;7127;49.372;8.166;2022-12-07T09:41:05;9.80;56.50
14101;DHT22;7127;49.372;8.166;2022-12-07T09:43:35;9.80;56.50
14101;DHT22;7127;49.372;8.166;2022-12-07T09:46:03;9.80;56.40
14101;DHT22;7127;49.372;8.166;2022-12-07T09:48:32;9.90;56.50
14101;DHT22;7127;49.372;8.166;2022-12-07T09:51:03;9.90;56.50
14101;DHT22;7127;49.372;8.166;2022-12-07T09:53:38;9.90;56.50
14101;DHT22;7127;49.372;8.166;2022-12-07T09:56:05;9.90;56.50
14101;DHT22;7127;49.372;8.166;2022-12-07T09:58:34;10.00;55.70
14101;DHT22;7127;49.372;8.166;2022-12-07T10:01:09;10.00;55.70
14101;DHT22;7127;49.372;8.166;2022-12-07T10:03:39;10.10;55.70
14101;DHT22;7127;49.372;8.166;2022-12-07T10:06:06;10.10;55.80
14101;DHT22;7127;49.372;8.166;2022-12-07T10:08:33;10.20;55.80
14101;DHT22;7127;49.372;8.166;2022-12-07T10:11:02;10.20;55.80
14101;DHT22;7127;49.372;8.166;2022-12-07T10:13:36;10.10;55.50
14101;DHT22;7127;49.372;8.166;2022-12-07T10:16:04;10.20;55.50
14101;DHT22;7127;49.372;8.166;2022-12-07T10:18:34;10.30;55.60
14101;DHT22;7127;49.372;8.166;2022-12-07T10:21:11;10.30;55.40
14101;DHT22;7127;49.372;8.166;2022-12-07T10:23:40;10.30;55.20
14101;DHT22;7127;49.372;8.166;2022-12-07T10:26:25;10.30;55.20
14101;DHT22;7127;49.372;8.166;2022-12-07T10:28:55;10.40;55.10
14101;DHT22;7127;49.372;8.166;2022-12-07T10:31:23;10.30;55.20
14101;DHT22;7127;49.372;8.166;2022-12-07T10:33:51;10.40;55.30
14101;DHT22;7127;49.372;8.166;2022-12-07T10:36:21;10.40;55.30
14101;DHT22;7127;49.372;8.166;2022-12-07T10:38:51;10.40;55.40
14101;DHT22;7127;49.372;8.166;2022-12-07T10:41:18;10.50;55.60
14101;DHT22;7127;49.372;8.166;2022-12-07T10:43:50;10.50;55.60
14101;DHT22;7127;49.372;8.166;2022-12-07T10:46:58;10.60;55.60
14101;DHT22;7127;49.372;8.166;2022-12-07T10:52:40;10.60;55.30
14101;DHT22;7127;49.372;8.166;2022-12-07T10:55:19;10.70;55.40
14101;DHT22;7127;49.372;8.166;2022-12-07T10:58:00;10.80;55.30
14101;DHT22;7127;49.372;8.166;2022-12-07T11:00:31;10.80;55.20
14101;DHT22;7127;49.372;8.166;2022-12-07T11:03:21;10.80;55.20
14101;DHT22;7127;49.372;8.166;2022-12-07T11:05:53;10.80;55.00
14101;DHT22;7127;49.372;8.166;2022-12-07T11:08:31;10.80;55.00
14101;DHT22;7127;49.372;8.166;2022-12-07T11:11:09;10.90;55.00
14101;DHT22;7127;49.372;8.166;2022-12-07T11:13:42;10.90;54.90
14101;DHT22;7127;49.372;8.166;2022-12-07T11:16:22;10.90;54.80
14101;DHT22;7127;49.372;8.166;2022-12-07T11:19:16;10.90;54.40
14101;DHT22;7127;49.372;8.166;2022-12-07T11:21:51;10.90;54.30
14101;DHT22;7127;49.372;8.166;2022-12-07T11:24:27;10.90;54.50
14101;DHT22;7127;49.372;8.166;2022-12-07T11:27:07;10.90;54.60
14101;DHT22;7127;49.372;8.166;2022-12-07T11:29:49;10.90;54.50
14101;DHT22;7127;49.372;8.166;2022-12-07T11:32:23;10.90;54.20
14101;DHT22;7127;49.372;8.166;2022-12-07T11:35:03;10.90;54.20
14101;DHT22;7127;49.372;8.166;2022-12-07T11:37:34;10.90;54.10
14101;DHT22;7127;49.372;8.166;2022-12-07T11:40:04;10.90;54.00
14101;DHT22;7127;49.372;8.166;2022-12-07T11:42:37;10.90;54.00
14101;DHT22;7127;49.372;8.166;2022-12-07T11:45:14;11.00;54.10
14101;DHT22;7127;49.372;8.166;2022-12-07T11:47:46;11.00;54.10
14101;DHT22;7127;49.372;8.166;2022-12-07T11:50:33;11.00;53.90
14101;DHT22;7127;49.372;8.166;2022-12-07T11:53:03;11.00;53.30
14101;DHT22;7127;49.372;8.166;2022-12-07T11:55:41;11.00;53.70
14101;DHT22;7127;49.372;8.166;2022-12-07T11:58:20;11.10;53.80
14101;DHT22;7127;49.372;8.166;2022-12-07T12:00:51;11.10;53.70
14101;DHT22;7127;49.372;8.166;2022-12-07T12:03:28;11.10;53.90
14101;DHT22;7127;49.372;8.166;2022-12-07T12:05:58;11.10;53.80
14101;DHT22;7127;49.372;8.166;2022-12-07T12:08:28;11.10;53.80
14101;DHT22;7127;49.372;8.166;2022-12-07T12:11:02;11.10;53.90
14101;DHT22;7127;49.372;8.166;2022-12-07T12:19:41;11.20;53.90
14101;DHT22;7127;49.372;8.166;2022-12-07T12:22:15;11.30;54.10
14101;DHT22;7127;49.372;8.166;2022-12-07T12:24:46;11.30;53.90
14101;DHT22;7127;49.372;8.166;2022-12-07T12:27:21;11.40;53.80
14101;DHT22;7127;49.372;8.166;2022-12-07T12:29:53;11.40;53.50
14101;DHT22;7127;49.372;8.166;2022-12-07T12:32:23;11.40;53.20
14101;DHT22;7127;49.372;8.166;2022-12-07T12:35:03;11.40;53.00
14101;DHT22;7127;49.372;8.166;2022-12-07T12:37:47;11.60;53.10
14101;DHT22;7127;49.372;8.166;2022-12-07T12:43:43;11.50;52.60
14101;DHT22;7127;49.372;8.166;2022-12-07T12:46:36;11.50;51.90
14101;DHT22;7127;49.372;8.166;2022-12-07T12:55:19;11.40;52.30
14101;DHT22;7127;49.372;8.166;2022-12-07T12:57:48;11.40;52.50
14101;DHT22;7127;49.372;8.166;2022-12-07T13:00:36;11.40;52.40
14101;DHT22;7127;49.372;8.166;2022-12-07T13:03:04;11.40;52.00
14101;DHT22;7127;49.372;8.166;2022-12-07T13:05:32;11.30;52.00
14101;DHT22;7127;49.372;8.166;2022-12-07T13:08:00;11.30;52.90
14101;DHT22;7127;49.372;8.166;2022-12-07T13:10:40;11.30;52.40
14101;DHT22;7127;49.372;8.166;2022-12-07T13:13:33;11.20;52.10
14101;DHT22;7127;49.372;8.166;2022-12-07T13:16:39;11.30;52.00
14101;DHT22;7127;49.372;8.166;2022-12-07T13:25:10;11.30;52.40
14101;DHT22;7127;49.372;8.166;2022-12-07T13:27:39;11.30;52.40
14101;DHT22;7127;49.372;8.166;2022-12-07T13:30:14;11.50;52.60
14101;DHT22;7127;49.372;8.166;2022-12-07T13:32:43;11.30;52.10
14101;DHT22;7127;49.372;8.166;2022-12-07T13:35:29;11.30;52.20
14101;DHT22;7127;49.372;8.166;2022-12-07T13:37:57;11.20;51.70
14101;DHT22;7127;49.372;8.166;2022-12-07T13:40:24;11.30;52.10
14101;DHT22;7127;49.372;8.166;2022-12-07T13:42:58;11.10;51.80
14101;DHT22;7127;49.372;8.166;2022-12-07T13:45:26;11.10;51.70
14101;DHT22;7127;49.372;8.166;2022-12-07T13:48:13;11.00;51.70
14101;DHT22;7127;49.372;8.166;2022-12-07T13:50:41;10.90;51.80
14101;DHT22;7127;49.372;8.166;2022-12-07T13:53:12;10.90;51.70
14101;DHT22;7127;49.372;8.166;2022-12-07T13:55:45;10.90;51.80
14101;DHT22;7127;49.372;8.166;2022-12-07T13:58:13;10.80;52.40
14101;DHT22;7127;49.372;8.166;2022-12-07T14:00:40;10.80;52.00
14101;DHT22;7127;49.372;8.166;2022-12-07T14:03:35;10.70;52.00
14101;DHT22;7127;49.372;8.166;2022-12-07T14:06:23;10.70;52.50
14101;DHT22;7127;49.372;8.166;2022-12-07T14:09:35;10.70;52.00
14101;DHT22;7127;49.372;8.166;2022-12-07T14:12:12;10.70;52.00
14101;DHT22;7127;49.372;8.166;2022-12-07T14:14:47;10.60;52.10
14101;DHT22;7127;49.372;8.166;2022-12-07T14:17:16;10.60;52.20
14101;DHT22;7127;49.372;8.166;2022-12-07T14:19:47;10.60;52.30
14101;DHT22;7127;49.372;8.166;2022-12-07T14:22:30;10.50;52.20
14101;DHT22;7127;49.372;8.166;2022-12-07T14:25:13;10.50;52.40
14101;DHT22;7127;49.372;8.166;2022-12-07T14:27:49;10.40;52.40
14101;DHT22;7127;49.372;8.166;2022-12-07T14:30:17;10.40;52.30
14101;DHT22;7127;49.372;8.166;2022-12-07T14:32:52;10.40;52.40
14101;DHT22;7127;49.372;8.166;2022-12-07T14:35:20;10.40;52.50
14101;DHT22;7127;49.372;8.166;2022-12-07T14:37:48;10.40;52.50
14101;DHT22;7127;49.372;8.166;2022-12-07T14:40:18;10.40;52.60
14101;DHT22;7127;49.372;8.166;2022-12-07T14:42:45;10.40;52.60
14101;DHT22;7127;49.372;8.166;2022-12-07T14:45:15;10.40;52.60
14101;DHT22;7127;49.372;8.166;2022-12-07T14:47:43;10.40;52.60
14101;DHT22;7127;49.372;8.166;2022-12-07T14:50:12;10.40;52.70
14101;DHT22;7127;49.372;8.166;2022-12-07T14:52:41;10.40;52.80
14101;DHT22;7127;49.372;8.166;2022-12-07T14:55:14;10.40;52.70
14101;DHT22;7127;49.372;8.166;2022-12-07T14:57:42;10.40;52.80
14101;DHT22;7127;49.372;8.166;2022-12-07T15:00:14;10.30;52.60
14101;DHT22;7127;49.372;8.166;2022-12-07T15:02:43;10.40;52.70
14101;DHT22;7127;49.372;8.166;2022-12-07T15:05:10;10.40;52.70
14101;DHT22;7127;49.372;8.166;2022-12-07T15:07:36;10.50;52.80
14101;DHT22;7127;49.372;8.166;2022-12-07T15:10:08;10.50;52.80
14101;DHT22;7127;49.372;8.166;2022-12-07T15:12:39;10.50;52.80
14101;DHT22;7127;49.372;8.166;2022-12-07T15:15:07;10.50;52.80
14101;DHT22;7127;49.372;8.166;2022-12-07T15:17:34;10.50;52.90
14101;DHT22;7127;49.372;8.166;2022-12-07T15:20:01;10.40;52.80
14101;DHT22;7127;49.372;8.166;2022-12-07T15:22:28;10.50;52.90
14101;DHT22;7127;49.372;8.166;2022-12-07T15:24:56;10.50;52.90
14101;DHT22;7127;49.372;8.166;2022-12-07T15:27:25;10.40;52.80
14101;DHT22;7127;49.372;8.166;2022-12-07T15:29:51;10.40;52.80
14101;DHT22;7127;49.372;8.166;2022-12-07T15:32:19;10.60;52.90
14101;DHT22;7127;49.372;8.166;2022-12-07T15:34:46;10.40;52.60
14101;DHT22;7127;49.372;8.166;2022-12-07T15:37:12;10.40;52.50
14101;DHT22;7127;49.372;8.166;2022-12-07T15:39:39;10.40;52.50
14101;DHT22;7127;49.372;8.166;2022-12-07T15:42:06;10.40;52.40
14101;DHT22;7127;49.372;8.166;2022-12-07T15:44:34;10.30;52.40
14101;DHT22;7127;49.372;8.166;2022-12-07T15:47:19;10.20;52.40
14101;DHT22;7127;49.372;8.166;2022-12-07T15:49:46;10.20;52.40
14101;DHT22;7127;49.372;8.166;2022-12-07T15:52:13;10.10;52.40
14101;DHT22;7127;49.372;8.166;2022-12-07T15:54:39;10.10;52.50
14101;DHT22;7127;49.372;8.166;2022-12-07T15:57:06;10.00;52.50
14101;DHT22;7127;49.372;8.166;2022-12-07T15:59:35;10.00;52.50
14101;DHT22;7127;49.372;8.166;2022-12-07T16:02:01;9.90;53.30
14101;DHT22;7127;49.372;8.166;2022-12-07T16:04:29;9.90;53.40
14101;DHT22;7127;49.372;8.166;2022-12-07T16:06:56;9.80;53.40
14101;DHT22;7127;49.372;8.166;2022-12-07T16:09:23;9.90;53.50
14101;DHT22;7127;49.372;8.166;2022-12-07T16:11:50;9.90;53.50
14101;DHT22;7127;49.372;8.166;2022-12-07T16:14:17;9.70;53.40
14101;DHT22;7127;49.372;8.166;2022-12-07T16:16:46;9.80;53.60
14101;DHT22;7127;49.372;8.166;2022-12-07T16:19:14;9.70;53.50
14101;DHT22;7127;49.372;8.166;2022-12-07T16:21:41;9.70;53.60
14101;DHT22;7127;49.372;8.166;2022-12-07T16:24:08;9.50;53.50
14101;DHT22;7127;49.372;8.166;2022-12-07T16:26:36;9.50;53.50
14101;DHT22;7127;49.372;8.166;2022-12-07T16:29:03;9.50;53.60
14101;DHT22;7127;49.372;8.166;2022-12-07T16:31:30;9.40;53.60
14101;DHT22;7127;49.372;8.166;2022-12-07T16:33:58;9.40;53.70
14101;DHT22;7127;49.372;8.166;2022-12-07T16:36:25;9.30;53.70
14101;DHT22;7127;49.372;8.166;2022-12-07T16:38:52;9.30;53.70
14101;DHT22;7127;49.372;8.166;2022-12-07T16:41:19;9.60;54.00
14101;DHT22;7127;49.372;8.166;2022-12-07T16:43:47;9.30;53.90
14101;DHT22;7127;49.372;8.166;2022-12-07T16:46:13;9.20;53.80